KCHO/CHO METAR and TAF weather

Enter ICAO airport designator
Station Type Date Time Source
KCHO METAR 2019/04/25 21:53 UTC NOAA

KCHO 252153Z 05003KT 10SM CLR 24/12 A2983 RMK AO2 SLP096 T02390122


Station Type Date Time Source
KCHO Decoded METAR 2019/04/25 21:53 UTC NOAA

CHARLOTTESVILLE-ALBEMARLE, VA, United States (KCHO) 38-08N 078-27W 192M
Apr 25, 2019 - 05:53 PM EDT / 2019.04.25 2153 UTC
Wind: from the NE (050 degrees) at 3 MPH (3 KT):0
Visibility: 10 mile(s):0
Sky conditions: clear
Temperature: 75.0 F (23.9 C)
Dew Point: 54.0 F (12.2 C)
Relative Humidity: 47%
Pressure (altimeter): 29.83 in. Hg (1010 hPa)
ob: KCHO 252153Z 05003KT 10SM CLR 24/12 A2983 RMK AO2 SLP096 T02390122
cycle: 22

Station Type Date Time Source
KCHO TAF 2019/04/25 18:24 UTC NOAA

TAF KCHO 251720Z 2518/2618 VRB03KT P6SM BKN150
FM260900 15006KT P6SM -SHRA OVC090
FM261200 19008KT P6SM -SHRA OVC060
FM261600 19012G20KT 6SM -SHRA VCTS OVC035CB

Example: see airport list